createdAt,value
2023-05-08T00:02:18.280Z,13.27
2023-05-08T00:04:50.345Z,13.93
2023-05-08T00:07:22.439Z,12.80
2023-05-08T00:09:54.470Z,12.83
2023-05-08T00:12:26.365Z,12.80
2023-05-08T00:14:58.601Z,13.07
2023-05-08T00:17:30.856Z,11.90
2023-05-08T00:20:03.331Z,11.87
2023-05-08T00:22:35.760Z,12.10
2023-05-08T00:25:09.146Z,11.90
2023-05-08T00:27:41.129Z,11.60
2023-05-08T00:30:13.690Z,12.27
2023-05-08T00:32:47.076Z,11.63
2023-05-08T00:35:19.508Z,12.27
2023-05-08T00:37:51.605Z,12.80
2023-05-08T00:40:23.672Z,12.67
2023-05-08T00:42:55.780Z,12.97
2023-05-08T00:45:38.013Z,12.93
2023-05-08T00:48:10.022Z,12.50
2023-05-08T00:50:42.089Z,12.63
2023-05-08T00:53:14.741Z,12.93
2023-05-08T00:55:47.725Z,12.77
2023-05-08T00:58:22.747Z,12.80
2023-05-08T01:00:57.618Z,12.30
2023-05-08T01:03:31.236Z,12.17
2023-05-08T01:06:05.129Z,12.40
2023-05-08T01:08:37.202Z,11.90
2023-05-08T01:11:24.968Z,12.17
2023-05-08T01:14:47.248Z,12.30
2023-05-08T01:17:57.612Z,12.80
2023-05-08T01:20:42.263Z,12.03
2023-05-08T01:23:51.518Z,11.73
2023-05-08T01:26:42.361Z,12.50
2023-05-08T01:29:51.464Z,12.17
2023-05-08T01:32:39.173Z,12.40
2023-05-08T01:35:27.345Z,12.27
2023-05-08T01:38:42.884Z,12.37
2023-05-08T01:41:26.100Z,12.37
2023-05-08T01:44:16.927Z,12.27
2023-05-08T01:46:51.399Z,12.27
2023-05-08T01:50:04.475Z,13.10
2023-05-08T01:52:53.148Z,12.80
2023-05-08T01:55:31.626Z,13.23
2023-05-08T01:58:10.179Z,12.97
2023-05-08T02:00:44.152Z,13.10
2023-05-08T02:03:18.534Z,12.97
2023-05-08T02:05:53.736Z,13.80
2023-05-08T02:08:28.564Z,12.40
2023-05-08T02:11:03.132Z,13.37
2023-05-08T02:13:36.310Z,14.07
2023-05-08T02:16:11.586Z,12.90
2023-05-08T02:18:52.342Z,15.10
2023-05-08T02:21:26.629Z,14.63
2023-05-08T02:24:00.515Z,15.60
2023-05-08T02:26:34.314Z,16.63
2023-05-08T02:29:07.352Z,15.03
2023-05-08T02:31:41.762Z,15.60
2023-05-08T02:34:14.480Z,14.53
2023-05-08T02:36:48.913Z,15.80
2023-05-08T02:39:26.289Z,15.63
2023-05-08T02:41:58.736Z,15.80
2023-05-08T02:44:31.187Z,15.47
2023-05-08T02:47:41.060Z,15.13
2023-05-08T02:50:18.061Z,15.57
2023-05-08T02:53:03.208Z,14.80
2023-05-08T02:55:50.632Z,14.83
2023-05-08T02:58:44.471Z,14.90
2023-05-08T03:01:31.667Z,14.73
2023-05-08T03:04:09.685Z,15.63
2023-05-08T03:06:47.698Z,14.83
2023-05-08T03:09:23.136Z,14.80
2023-05-08T03:12:06.266Z,15.77
2023-05-08T03:14:47.655Z,15.33
2023-05-08T03:17:24.338Z,15.70
2023-05-08T03:20:03.087Z,16.00
2023-05-08T03:22:38.932Z,15.87
2023-05-08T03:25:14.426Z,16.50
2023-05-08T03:27:48.442Z,16.43
2023-05-08T03:30:21.544Z,16.83
2023-05-08T03:32:55.219Z,16.53
2023-05-08T03:35:28.737Z,16.13
2023-05-08T03:38:00.892Z,16.20
2023-05-08T03:40:44.882Z,16.00
2023-05-08T03:43:19.510Z,16.43
2023-05-08T03:45:51.973Z,16.10
2023-05-08T03:48:24.893Z,16.43
2023-05-08T03:50:58.721Z,16.20
2023-05-08T03:53:32.710Z,16.00
2023-05-08T03:56:05.124Z,20.85
2023-05-08T03:59:31.420Z,17.10
2023-05-08T04:02:42.286Z,16.37
2023-05-08T04:05:37.884Z,17.60
2023-05-08T04:08:17.265Z,18.03
2023-05-08T04:11:30.565Z,18.00
2023-05-08T04:14:08.503Z,18.20
2023-05-08T04:16:48.928Z,18.10
2023-05-08T04:19:28.696Z,18.63
2023-05-08T04:22:07.846Z,18.20
2023-05-08T04:24:45.810Z,18.93
2023-05-08T04:27:18.808Z,19.60
2023-05-08T04:29:50.922Z,19.37
2023-05-08T04:32:23.626Z,18.87
2023-05-08T04:34:56.377Z,20.03
2023-05-08T04:37:33.801Z,18.40
2023-05-08T04:40:06.845Z,19.80
2023-05-08T04:42:42.813Z,19.20
2023-05-08T04:45:15.202Z,20.47
2023-05-08T04:47:47.378Z,21.17
2023-05-08T04:50:20.227Z,20.23
2023-05-08T04:52:52.180Z,19.50
2023-05-08T04:55:24.066Z,19.47
2023-05-08T04:57:56.032Z,20.70
2023-05-08T05:00:27.957Z,20.40
2023-05-08T05:03:00.031Z,20.20
2023-05-08T05:05:31.982Z,19.57
2023-05-08T05:08:04.329Z,20.43
2023-05-08T05:10:38.458Z,20.83
2023-05-08T05:13:10.675Z,21.27
2023-05-08T05:15:43.840Z,21.30
2023-05-08T05:18:15.856Z,23.00
2023-05-08T05:20:47.958Z,23.47
2023-05-08T05:23:19.888Z,22.10
2023-05-08T05:25:51.824Z,22.83
2023-05-08T05:28:23.813Z,21.80
2023-05-08T05:30:56.266Z,23.03
2023-05-08T05:33:28.433Z,23.70
2023-05-08T05:36:00.603Z,23.20
2023-05-08T05:38:32.550Z,23.63
2023-05-08T05:41:04.493Z,24.07
2023-05-08T05:43:36.941Z,23.63
2023-05-08T05:46:10.543Z,25.07
2023-05-08T05:48:42.679Z,24.80
2023-05-08T05:51:14.710Z,26.00
2023-05-08T05:53:46.692Z,25.47
2023-05-08T05:56:18.704Z,25.90
2023-05-08T05:58:50.798Z,26.83
2023-05-08T06:01:24.777Z,26.70
2023-05-08T06:03:56.847Z,27.10
2023-05-08T06:06:29.177Z,27.93
2023-05-08T06:09:01.695Z,28.97
2023-05-08T06:11:33.626Z,27.97
2023-05-08T06:14:05.602Z,27.70
2023-05-08T06:16:37.963Z,28.47
2023-05-08T06:19:09.899Z,29.30
2023-05-08T06:21:42.043Z,29.73
2023-05-08T06:24:13.974Z,29.43
2023-05-08T06:26:46.972Z,29.43
2023-05-08T06:29:18.890Z,30.03
2023-05-08T06:31:51.003Z,30.27
2023-05-08T06:34:22.945Z,30.37
2023-05-08T06:36:54.922Z,29.20
2023-05-08T06:39:26.931Z,29.83
2023-05-08T06:41:58.888Z,30.40
2023-05-08T06:44:31.126Z,30.13
2023-05-08T06:47:03.403Z,30.00
2023-05-08T06:49:38.770Z,30.23
2023-05-08T06:52:10.785Z,30.50
2023-05-08T06:54:42.796Z,30.13
2023-05-08T06:57:16.259Z,31.23
2023-05-08T06:59:48.195Z,31.20
2023-05-08T07:02:20.387Z,29.77
2023-05-08T07:04:52.454Z,31.37
2023-05-08T07:07:24.486Z,31.97
2023-05-08T07:09:56.402Z,33.57
2023-05-08T07:12:28.290Z,32.63
2023-05-08T07:15:03.501Z,33.47
2023-05-08T07:17:40.048Z,32.03
2023-05-08T07:20:12.169Z,32.03
2023-05-08T07:22:44.086Z,32.43
2023-05-08T07:25:16.330Z,32.73
2023-05-08T07:27:48.382Z,32.53
2023-05-08T07:30:20.396Z,30.77
2023-05-08T07:32:52.359Z,31.43
2023-05-08T07:35:24.498Z,32.70
2023-05-08T07:37:56.436Z,30.77
2023-05-08T07:40:28.407Z,30.97
2023-05-08T07:43:00.651Z,30.13
2023-05-08T07:45:32.630Z,29.97
2023-05-08T07:48:05.003Z,28.60
2023-05-08T07:50:37.224Z,29.33
2023-05-08T07:53:09.232Z,28.83
2023-05-08T07:55:41.153Z,28.63
2023-05-08T07:58:13.631Z,29.33
2023-05-08T08:00:45.518Z,28.53
2023-05-08T08:03:17.568Z,26.83
2023-05-08T08:05:49.574Z,27.80
2023-05-08T08:08:21.889Z,28.50
2023-05-08T08:10:54.189Z,29.93
2023-05-08T08:13:26.405Z,30.67
2023-05-08T08:15:59.380Z,29.30
2023-05-08T08:18:36.189Z,28.93
2023-05-08T08:21:08.355Z,31.10
2023-05-08T08:23:40.317Z,30.03
2023-05-08T08:26:12.399Z,30.03
2023-05-08T08:28:44.327Z,30.30
2023-05-08T08:31:16.579Z,29.97
2023-05-08T08:33:48.551Z,28.17
2023-05-08T08:36:20.517Z,27.23
2023-05-08T08:38:52.482Z,26.70
2023-05-08T08:41:24.448Z,25.67
2023-05-08T08:43:56.794Z,27.33
2023-05-08T08:46:28.973Z,25.50
2023-05-08T08:49:04.788Z,24.63
2023-05-08T08:51:50.110Z,25.47
2023-05-08T08:54:24.905Z,25.53
2023-05-08T08:57:00.829Z,24.23
2023-05-08T08:59:36.512Z,22.30
2023-05-08T09:02:17.588Z,21.80
2023-05-08T09:04:50.537Z,22.73
2023-05-08T09:07:24.472Z,21.40
2023-05-08T09:09:57.107Z,19.93
2023-05-08T09:12:29.177Z,20.60
2023-05-08T09:15:01.164Z,20.53
2023-05-08T09:17:33.152Z,21.17
2023-05-08T09:20:06.945Z,21.33
2023-05-08T09:22:40.370Z,21.67
2023-05-08T09:25:12.831Z,22.87
2023-05-08T09:27:45.235Z,24.03
2023-05-08T09:30:17.241Z,24.47
2023-05-08T09:32:50.007Z,23.73
2023-05-08T09:35:36.819Z,23.53
2023-05-08T09:38:08.781Z,24.63
2023-05-08T09:40:40.804Z,24.53
2023-05-08T09:43:14.016Z,25.00
2023-05-08T09:45:46.248Z,24.73
2023-05-08T09:48:18.190Z,25.37
2023-05-08T09:51:06.958Z,26.00
2023-05-08T09:53:38.943Z,25.87
2023-05-08T09:56:11.562Z,25.00
2023-05-08T09:58:44.903Z,25.73
2023-05-08T10:01:46.760Z,27.73
2023-05-08T10:04:30.884Z,29.67
2023-05-08T10:07:03.934Z,30.70
2023-05-08T10:09:49.737Z,31.57
2023-05-08T10:12:22.759Z,31.60
2023-05-08T10:14:55.584Z,33.27
2023-05-08T10:17:40.799Z,31.33
2023-05-08T10:20:15.978Z,34.07
2023-05-08T10:22:49.553Z,34.27
2023-05-08T10:25:24.170Z,33.97
2023-05-08T10:28:16.447Z,34.17
2023-05-08T10:30:50.150Z,33.77
2023-05-08T10:33:33.821Z,33.60
2023-05-08T10:36:07.223Z,33.67
2023-05-08T10:38:41.542Z,35.80
2023-05-08T10:41:14.265Z,36.97
2023-05-08T10:43:47.018Z,34.57
2023-05-08T10:46:37.474Z,35.63
2023-05-08T10:49:34.104Z,34.40
2023-05-08T10:52:36.338Z,37.37
2023-05-08T10:55:25.062Z,35.70
2023-05-08T10:58:31.306Z,36.87
2023-05-08T11:01:09.495Z,35.83
2023-05-08T11:03:46.832Z,35.63
2023-05-08T11:06:49.392Z,35.67
2023-05-08T11:09:30.922Z,35.90
2023-05-08T11:12:27.833Z,34.43
2023-05-08T11:15:07.012Z,34.60
2023-05-08T11:17:43.007Z,34.67
2023-05-08T11:20:15.110Z,35.97
2023-05-08T11:22:50.178Z,36.00
2023-05-08T11:25:43.553Z,36.03
2023-05-08T11:28:17.293Z,36.07
2023-05-08T11:30:57.949Z,34.57
2023-05-08T11:33:37.990Z,35.03
2023-05-08T11:36:23.084Z,34.77
2023-05-08T11:39:13.347Z,35.50
2023-05-08T11:41:48.102Z,36.73
2023-05-08T11:44:22.538Z,37.37
2023-05-08T11:46:56.449Z,38.27
2023-05-08T11:49:30.159Z,39.30
2023-05-08T11:52:04.405Z,38.87
2023-05-08T11:54:36.960Z,36.57
2023-05-08T11:57:08.884Z,36.17
2023-05-08T11:59:43.576Z,36.40
2023-05-08T12:02:15.736Z,35.17
2023-05-08T12:04:48.055Z,34.17
2023-05-08T12:07:21.927Z,34.97
2023-05-08T12:09:53.958Z,34.40
2023-05-08T12:12:41.355Z,32.77
2023-05-08T12:15:15.406Z,30.40
2023-05-08T12:17:47.644Z,31.33
2023-05-08T12:20:20.196Z,31.57
2023-05-08T12:22:53.777Z,30.80
2023-05-08T12:25:26.189Z,28.57
2023-05-08T12:28:00.086Z,29.33
2023-05-08T12:30:32.274Z,28.33
2023-05-08T12:33:05.825Z,25.03
2023-05-08T12:35:39.973Z,23.03
2023-05-08T12:38:12.225Z,24.17
2023-05-08T12:40:56.097Z,23.20
2023-05-08T12:43:37.731Z,22.53
2023-05-08T12:46:13.271Z,22.57
2023-05-08T12:48:45.186Z,21.13
2023-05-08T12:51:17.142Z,20.13
2023-05-08T12:53:50.811Z,20.00
2023-05-08T12:56:22.899Z,19.20
2023-05-08T12:58:59.796Z,17.43
2023-05-08T13:01:31.780Z,17.47
2023-05-08T13:04:07.843Z,16.17
2023-05-08T13:06:39.959Z,15.07
2023-05-08T13:09:18.535Z,15.93
2023-05-08T13:11:50.475Z,16.27
2023-05-08T13:14:22.381Z,14.13
2023-05-08T13:16:54.539Z,14.57
2023-05-08T13:19:27.630Z,15.23
2023-05-08T13:21:59.627Z,14.47
2023-05-08T13:24:31.520Z,15.87
2023-05-08T13:27:03.844Z,15.20
2023-05-08T13:29:35.777Z,14.97
2023-05-08T13:32:07.848Z,15.57
2023-05-08T13:34:49.153Z,15.47
2023-05-08T13:37:22.935Z,17.90
2023-05-08T13:39:54.883Z,19.60
2023-05-08T13:42:26.866Z,20.23
2023-05-08T13:44:58.807Z,21.10
2023-05-08T13:47:31.506Z,21.67
2023-05-08T13:50:03.656Z,20.77
2023-05-08T13:52:36.284Z,20.20
2023-05-08T13:55:12.110Z,20.83
2023-05-08T13:57:44.474Z,20.90
2023-05-08T14:00:18.105Z,20.97
2023-05-08T14:02:52.320Z,20.70
2023-05-08T14:05:25.383Z,21.37
2023-05-08T14:07:57.350Z,22.33
2023-05-08T14:10:29.317Z,20.37
2023-05-08T14:13:01.329Z,21.97
2023-05-08T14:15:37.322Z,21.37
2023-05-08T14:18:09.831Z,23.27
2023-05-08T14:20:42.067Z,23.03
2023-05-08T14:23:14.737Z,22.10
2023-05-08T14:25:46.667Z,22.80
2023-05-08T14:28:18.582Z,22.67
2023-05-08T14:30:50.578Z,23.37
2023-05-08T14:33:22.586Z,22.83
2023-05-08T14:35:54.570Z,23.13
2023-05-08T14:38:26.584Z,23.30
2023-05-08T14:40:58.832Z,23.70
2023-05-08T14:43:31.286Z,24.37
2023-05-08T14:46:03.275Z,24.33
2023-05-08T14:48:35.395Z,24.30
2023-05-08T14:51:07.319Z,23.67
2023-05-08T14:53:39.497Z,22.60
2023-05-08T14:56:13.960Z,23.53
2023-05-08T14:58:46.147Z,23.03
2023-05-08T15:01:18.564Z,24.37
2023-05-08T15:03:53.590Z,23.83
2023-05-08T15:06:27.480Z,23.70
2023-05-08T15:08:59.444Z,23.73
2023-05-08T15:11:31.381Z,24.27
2023-05-08T15:14:05.192Z,24.33
2023-05-08T15:16:37.229Z,24.53
2023-05-08T15:19:09.679Z,23.57
2023-05-08T15:21:41.787Z,23.77
2023-05-08T15:24:13.746Z,23.13
2023-05-08T15:26:45.675Z,23.70
2023-05-08T15:29:17.668Z,23.97
2023-05-08T15:31:49.669Z,23.73
2023-05-08T15:34:23.363Z,23.73
2023-05-08T15:36:56.544Z,24.17
2023-05-08T15:39:28.591Z,23.17
2023-05-08T15:42:01.307Z,22.83
2023-05-08T15:44:53.284Z,22.00
2023-05-08T15:47:28.831Z,22.13
2023-05-08T15:50:00.825Z,22.27
2023-05-08T15:52:32.746Z,22.07
2023-05-08T15:55:05.096Z,24.40
2023-05-08T15:57:37.062Z,23.27
2023-05-08T16:00:09.962Z,23.57
2023-05-08T16:02:41.990Z,23.17
2023-05-08T16:05:14.434Z,23.63
2023-05-08T16:07:48.498Z,22.73
2023-05-08T16:10:20.428Z,22.30
2023-05-08T16:12:52.543Z,21.77
2023-05-08T16:15:24.457Z,22.60
2023-05-08T16:17:56.418Z,21.80
2023-05-08T16:20:28.528Z,21.13
2023-05-08T16:23:00.613Z,21.13
2023-05-08T16:25:32.644Z,20.57
2023-05-08T16:28:05.025Z,20.67
2023-05-08T16:30:37.014Z,20.20
2023-05-08T16:33:12.114Z,20.27
2023-05-08T16:35:44.342Z,19.77
2023-05-08T16:38:16.399Z,20.87
2023-05-08T16:40:48.385Z,19.87
2023-05-08T16:43:20.391Z,19.70
2023-05-08T16:45:52.431Z,19.93
2023-05-08T16:48:24.812Z,20.77
2023-05-08T16:50:57.258Z,22.17
2023-05-08T16:53:29.222Z,20.97
2023-05-08T16:56:01.431Z,21.23
2023-05-08T16:58:33.397Z,22.60
2023-05-08T17:06:33.952Z,20.40
2023-05-08T17:09:06.113Z,20.50
2023-05-08T17:11:38.219Z,19.47
2023-05-08T17:14:10.374Z,18.80
2023-05-08T17:16:42.610Z,18.33
2023-05-08T17:19:14.619Z,19.07
2023-05-08T17:21:46.582Z,19.67
2023-05-08T17:24:19.684Z,18.77
2023-05-08T17:29:27.201Z,19.90
2023-05-08T17:32:00.480Z,18.90
2023-05-08T17:34:32.577Z,19.40
2023-05-08T17:37:04.611Z,19.30
2023-05-08T17:39:36.562Z,19.80
2023-05-08T17:42:13.963Z,19.60
2023-05-08T17:44:46.196Z,19.33
2023-05-08T17:47:18.257Z,19.53
2023-05-08T17:49:50.605Z,19.10
2023-05-08T17:52:22.835Z,19.97
2023-05-08T17:54:54.855Z,19.80
2023-05-08T17:57:28.902Z,20.07
2023-05-08T18:00:03.714Z,20.20
2023-05-08T18:02:36.206Z,19.40
2023-05-08T18:05:09.076Z,20.80
2023-05-08T18:07:41.164Z,20.60
2023-05-08T18:10:13.421Z,20.37
2023-05-08T18:12:45.559Z,21.87
2023-05-08T18:15:17.593Z,21.80
2023-05-08T18:17:49.678Z,21.27
2023-05-08T18:20:21.714Z,22.10
2023-05-08T18:22:53.697Z,22.90
2023-05-08T18:25:25.670Z,22.50
2023-05-08T18:27:58.950Z,22.63
2023-05-08T18:30:31.606Z,23.00
2023-05-08T18:33:03.627Z,23.23
2023-05-08T18:35:35.667Z,23.57
2023-05-08T18:38:07.663Z,23.33
2023-05-08T18:40:39.701Z,22.37
2023-05-08T18:43:11.763Z,23.10
2023-05-08T18:45:43.691Z,22.93
2023-05-08T18:48:15.602Z,23.17
2023-05-08T18:50:47.550Z,22.93
2023-05-08T18:53:20.015Z,22.60
2023-05-08T18:55:52.350Z,22.90
2023-05-08T18:58:24.521Z,23.23
2023-05-08T19:00:58.052Z,23.00
2023-05-08T19:03:30.184Z,23.87
2023-05-08T19:06:02.250Z,24.27
2023-05-08T19:08:34.225Z,24.33
2023-05-08T19:11:06.260Z,23.77
2023-05-08T19:13:38.408Z,25.00
2023-05-08T19:16:10.391Z,24.60
2023-05-08T19:18:42.385Z,25.13
2023-05-08T19:21:14.555Z,26.17
2023-05-08T19:23:46.880Z,28.48
2023-05-08T19:26:18.830Z,25.93
2023-05-08T19:28:50.831Z,25.80
2023-05-08T19:31:22.802Z,25.30
2023-05-08T19:33:54.879Z,25.50
2023-05-08T19:36:26.986Z,25.17
2023-05-08T19:38:58.977Z,25.93
2023-05-08T19:41:30.885Z,25.97
2023-05-08T19:44:02.779Z,24.67
2023-05-08T19:46:34.762Z,24.90
2023-05-08T19:49:06.774Z,25.23
2023-05-08T19:51:39.853Z,25.77
2023-05-08T19:54:12.144Z,25.53
2023-05-08T19:56:44.100Z,26.33
2023-05-08T19:59:16.442Z,25.73
2023-05-08T20:01:50.331Z,26.77
2023-05-08T20:04:24.234Z,26.23
2023-05-08T20:06:56.183Z,26.20
2023-05-08T20:09:29.348Z,26.33
2023-05-08T20:12:01.317Z,26.03
2023-05-08T20:14:33.237Z,25.87
2023-05-08T20:17:05.320Z,26.20
2023-05-08T20:19:37.328Z,25.77
2023-05-08T20:22:10.981Z,27.90
2023-05-08T20:24:43.041Z,28.03
2023-05-08T20:27:15.030Z,28.87
2023-05-08T20:29:47.079Z,28.73
2023-05-08T20:32:20.239Z,28.57
2023-05-08T20:34:52.255Z,29.07
2023-05-08T20:37:24.240Z,28.27
2023-05-08T20:39:58.206Z,28.37
2023-05-08T20:42:30.572Z,29.17
2023-05-08T20:45:02.498Z,28.13
2023-05-08T20:47:34.673Z,29.67
2023-05-08T20:50:07.830Z,30.17
2023-05-08T20:52:41.894Z,31.50
2023-05-08T20:55:14.635Z,30.37
2023-05-08T20:57:46.758Z,30.27
2023-05-08T21:00:19.162Z,30.00
2023-05-08T21:02:51.315Z,30.63
2023-05-08T21:05:23.313Z,29.77
2023-05-08T21:07:59.974Z,30.00
2023-05-08T21:10:31.998Z,30.17
2023-05-08T21:13:04.245Z,30.53
2023-05-08T21:15:36.137Z,30.00
2023-05-08T21:18:08.388Z,30.83
2023-05-08T21:20:40.399Z,30.80
2023-05-08T21:23:12.334Z,31.30
2023-05-08T21:25:50.032Z,30.83
2023-05-08T21:28:21.974Z,32.20
2023-05-08T21:30:53.915Z,31.87
2023-05-08T21:33:25.889Z,31.20
2023-05-08T21:35:59.207Z,31.30
2023-05-08T21:38:31.154Z,31.47
2023-05-08T21:41:08.496Z,31.30
2023-05-08T21:43:40.493Z,32.40
2023-05-08T21:46:12.489Z,31.37
2023-05-08T21:48:44.444Z,32.37
2023-05-08T21:51:16.395Z,30.70
2023-05-08T21:53:48.337Z,30.73
2023-05-08T21:56:20.915Z,30.50
2023-05-08T21:58:52.817Z,29.53
2023-05-08T22:01:24.788Z,29.67
2023-05-08T22:03:56.971Z,29.27
2023-05-08T22:06:29.044Z,28.77
2023-05-08T22:09:01.181Z,28.43
2023-05-08T22:11:33.214Z,28.03
2023-05-08T22:14:05.195Z,27.67
2023-05-08T22:16:37.534Z,26.73
2023-05-08T22:19:10.299Z,27.70
2023-05-08T22:21:42.733Z,27.50
2023-05-08T22:24:15.121Z,26.47
2023-05-08T22:26:47.017Z,27.13
2023-05-08T22:29:19.045Z,27.20
2023-05-08T22:31:51.032Z,26.00
2023-05-08T22:34:23.005Z,26.17
2023-05-08T22:36:54.904Z,26.83
2023-05-08T22:39:26.907Z,25.97
2023-05-08T22:41:59.562Z,25.03
2023-05-08T22:44:31.574Z,26.23
2023-05-08T22:47:03.714Z,25.60
2023-05-08T22:49:36.434Z,25.37
2023-05-08T22:52:09.614Z,25.57
2023-05-08T22:54:41.598Z,24.67
2023-05-08T22:57:14.250Z,24.83
2023-05-08T22:59:46.165Z,22.97
2023-05-08T23:02:18.106Z,22.80
2023-05-08T23:04:50.186Z,21.93
2023-05-08T23:07:22.176Z,20.90
2023-05-08T23:09:54.208Z,21.93
2023-05-08T23:12:26.280Z,20.73
2023-05-08T23:14:58.263Z,21.73
2023-05-08T23:17:30.148Z,20.47
2023-05-08T23:20:02.552Z,21.10
2023-05-08T23:22:34.487Z,19.30
2023-05-08T23:25:09.722Z,20.47
2023-05-08T23:27:41.746Z,18.80
2023-05-08T23:30:16.768Z,19.20
2023-05-08T23:32:48.735Z,19.50
2023-05-08T23:35:20.926Z,18.80
2023-05-08T23:37:52.875Z,18.77
2023-05-08T23:40:24.932Z,19.37
2023-05-08T23:42:56.899Z,17.83
2023-05-08T23:45:28.974Z,18.77
2023-05-08T23:48:00.940Z,20.00
2023-05-08T23:50:32.943Z,18.60
2023-05-08T23:53:04.883Z,19.67
2023-05-08T23:55:37.886Z,19.50
2023-05-08T23:58:09.835Z,18.50
